YPKG/KGI METAR and TAF weather

Enter ICAO airport designator
Station Type Date Time Source
YPKG METAR 2020/01/19 00:30 UTC NOAA

YPKG 190030Z AUTO 12013KT 9999 // BKN027 OVC032 17/10 Q1019


Station Type Date Time Source
YPKG Decoded METAR 2020/01/19 00:30 UTC NOAA

Kalgoorlie Boulder Amo, Australia (YPKG) 30-47S 121-27E 370M
Jan 18, 2020 - 07:30 PM EST / 2020.01.19 0030 UTC
Wind: from the ESE (120 degrees) at 15 MPH (13 KT):0
Visibility: greater than 7 mile(s):0
Sky conditions: overcast
Temperature: 62 F (17 C)
Dew Point: 50 F (10 C)
Relative Humidity: 63%
Pressure (altimeter): 30.09 in. Hg (1019 hPa)
ob: YPKG 190030Z AUTO 12013KT 9999 // BKN027 OVC032 17/10 Q1019
cycle: 0

Station Type Date Time Source
YPKG TAF 2020/01/18 18:00 UTC NOAA

TAF YPKG 181708Z 1818/1918 14013KT 9999 BKN025
FM182000 12012KT 9999 BKN018
FM190000 11010KT 9999 BKN030
FM190500 11011KT 9999 SCT050
FM191200 09010KT CAVOK

Example: see airport list